Hythe, United Kingdom
Current Conditions -  °F | °C
As of 6:50 PM on Saturday 22 Nov 2014 (Local Time) from EGMD Reporting Station
Broken Clouds Broken Clouds  
Wind Chill: 57°   Ceiling: 900
Heat Index: 57°   Visibility: 4mi
Dew Point: 57°   Wind: 8mph
Humidity: 100%   Direction: 190°S
Pressure: 29.97"   Gusts: NA
Location:  51.07°N, 1.08°E
Report Text: EGMD 221850Z 19007KT 7000 BKN009 14/14 Q1015
Loading
Personal Weather Stations






























Interactive Weather Map New forecast layout! Learn more

10-Day Weather Forecast

Advertisements
Track Severe Weather on mobile